Owen Sound, Canada
Current Conditions -  °F | °C
As of 3:00 AM on Friday 28 Nov 2014 (Local Time) from CYVV Reporting Station
Light Snow Light Snow  
Wind Chill:   Ceiling: 2800
Heat Index: 16°   Visibility: 4mi
Dew Point: 12°   Wind: 9mph
Humidity: 86%   Direction: 330°NNW
Pressure: 30.19"   Gusts: NA
Location:  44.56°N, 80.94°W
Report Text: CYVV 280800Z 33008KT 4SM -SN OVC028 M09/M11 A3019 RMK SC8 SLP236
Loading
Personal Weather Stations






























Interactive Weather Map New forecast layout! Learn more

10-Day Weather Forecast

Advertisements
Track Severe Weather on mobile